sensor_id;sensor_type;location;lat;lon;timestamp;temperature;humidity
15615;DHT22;7907;51.368;6.730;2023-02-08T00:00:21;0.60;99.90
15615;DHT22;7907;51.368;6.730;2023-02-08T00:02:53;0.60;99.90
15615;DHT22;7907;51.368;6.730;2023-02-08T00:05:28;0.60;99.90
15615;DHT22;7907;51.368;6.730;2023-02-08T00:08:08;0.60;99.90
15615;DHT22;7907;51.368;6.730;2023-02-08T00:10:39;0.60;99.90
15615;DHT22;7907;51.368;6.730;2023-02-08T00:13:12;0.50;99.90
15615;DHT22;7907;51.368;6.730;2023-02-08T00:15:44;0.50;99.90
15615;DHT22;7907;51.368;6.730;2023-02-08T00:18:20;0.50;99.90
15615;DHT22;7907;51.368;6.730;2023-02-08T00:20:54;0.40;99.90
15615;DHT22;7907;51.368;6.730;2023-02-08T00:23:43;0.40;99.90
15615;DHT22;7907;51.368;6.730;2023-02-08T00:26:15;0.40;99.90
15615;DHT22;7907;51.368;6.730;2023-02-08T00:28:44;0.30;99.90
15615;DHT22;7907;51.368;6.730;2023-02-08T00:31:14;0.30;99.90
15615;DHT22;7907;51.368;6.730;2023-02-08T00:33:44;0.30;99.90
15615;DHT22;7907;51.368;6.730;2023-02-08T00:36:14;0.30;99.90
15615;DHT22;7907;51.368;6.730;2023-02-08T00:38:44;0.20;99.90
15615;DHT22;7907;51.368;6.730;2023-02-08T00:41:14;0.20;99.90
15615;DHT22;7907;51.368;6.730;2023-02-08T00:43:42;0.30;99.90
15615;DHT22;7907;51.368;6.730;2023-02-08T00:46:10;0.20;99.90
15615;DHT22;7907;51.368;6.730;2023-02-08T00:48:37;0.20;99.90
15615;DHT22;7907;51.368;6.730;2023-02-08T00:51:11;0.20;99.90
15615;DHT22;7907;51.368;6.730;2023-02-08T00:53:41;0.10;99.90
15615;DHT22;7907;51.368;6.730;2023-02-08T00:56:15;0.10;99.90
15615;DHT22;7907;51.368;6.730;2023-02-08T00:58:45;0.00;99.90
15615;DHT22;7907;51.368;6.730;2023-02-08T01:01:14;0.00;99.90
15615;DHT22;7907;51.368;6.730;2023-02-08T01:03:41;0.00;99.90
15615;DHT22;7907;51.368;6.730;2023-02-08T01:06:15;-0.10;99.90
15615;DHT22;7907;51.368;6.730;2023-02-08T01:08:43;-0.10;99.90
15615;DHT22;7907;51.368;6.730;2023-02-08T01:11:19;-0.10;99.90
15615;DHT22;7907;51.368;6.730;2023-02-08T01:13:50;-0.10;99.90
15615;DHT22;7907;51.368;6.730;2023-02-08T01:16:27;-0.20;99.90
15615;DHT22;7907;51.368;6.730;2023-02-08T01:18:56;-0.20;99.90
15615;DHT22;7907;51.368;6.730;2023-02-08T01:21:26;-0.20;99.90
15615;DHT22;7907;51.368;6.730;2023-02-08T01:23:56;-0.20;99.90
15615;DHT22;7907;51.368;6.730;2023-02-08T01:26:30;-0.20;99.90
15615;DHT22;7907;51.368;6.730;2023-02-08T01:28:59;-0.30;99.90
15615;DHT22;7907;51.368;6.730;2023-02-08T01:31:33;-0.30;99.90
15615;DHT22;7907;51.368;6.730;2023-02-08T01:34:03;-0.30;99.90
15615;DHT22;7907;51.368;6.730;2023-02-08T01:36:33;-0.30;99.90
15615;DHT22;7907;51.368;6.730;2023-02-08T01:39:01;-0.30;99.90
15615;DHT22;7907;51.368;6.730;2023-02-08T01:41:32;-0.40;99.90
15615;DHT22;7907;51.368;6.730;2023-02-08T01:44:06;-0.40;99.90
15615;DHT22;7907;51.368;6.730;2023-02-08T01:46:36;-0.40;99.90
15615;DHT22;7907;51.368;6.730;2023-02-08T01:49:11;-0.40;99.90
15615;DHT22;7907;51.368;6.730;2023-02-08T01:51:46;-0.40;99.90
15615;DHT22;7907;51.368;6.730;2023-02-08T01:54:16;-0.50;99.90
15615;DHT22;7907;51.368;6.730;2023-02-08T01:56:47;-0.50;99.90
15615;DHT22;7907;51.368;6.730;2023-02-08T01:59:18;-0.50;99.90
15615;DHT22;7907;51.368;6.730;2023-02-08T02:01:48;-0.50;99.90
15615;DHT22;7907;51.368;6.730;2023-02-08T02:04:20;-0.50;99.90
15615;DHT22;7907;51.368;6.730;2023-02-08T02:06:51;-0.50;99.90
15615;DHT22;7907;51.368;6.730;2023-02-08T02:09:23;-0.50;99.90
15615;DHT22;7907;51.368;6.730;2023-02-08T02:11:55;-0.50;99.90
15615;DHT22;7907;51.368;6.730;2023-02-08T02:14:24;-0.50;99.90
15615;DHT22;7907;51.368;6.730;2023-02-08T02:16:52;-0.50;99.90
15615;DHT22;7907;51.368;6.730;2023-02-08T02:19:27;-0.50;99.90
15615;DHT22;7907;51.368;6.730;2023-02-08T02:22:06;-0.50;99.90
15615;DHT22;7907;51.368;6.730;2023-02-08T02:24:54;-0.50;99.90
15615;DHT22;7907;51.368;6.730;2023-02-08T02:27:56;-0.50;99.90
15615;DHT22;7907;51.368;6.730;2023-02-08T02:33:43;-0.50;99.90
15615;DHT22;7907;51.368;6.730;2023-02-08T02:36:22;-0.50;99.90
15615;DHT22;7907;51.368;6.730;2023-02-08T02:39:03;-0.50;99.90
15615;DHT22;7907;51.368;6.730;2023-02-08T02:41:40;-0.60;99.90
15615;DHT22;7907;51.368;6.730;2023-02-08T02:44:35;-0.50;99.90
15615;DHT22;7907;51.368;6.730;2023-02-08T02:47:10;-0.60;99.90
15615;DHT22;7907;51.368;6.730;2023-02-08T02:49:47;-0.60;99.90
15615;DHT22;7907;51.368;6.730;2023-02-08T02:52:48;-0.60;99.90
15615;DHT22;7907;51.368;6.730;2023-02-08T02:55:21;-0.60;99.90
15615;DHT22;7907;51.368;6.730;2023-02-08T02:57:50;-0.60;99.90
15615;DHT22;7907;51.368;6.730;2023-02-08T03:00:24;-0.60;99.90
15615;DHT22;7907;51.368;6.730;2023-02-08T03:02:52;-0.60;99.90
15615;DHT22;7907;51.368;6.730;2023-02-08T03:05:21;-0.60;99.90
15615;DHT22;7907;51.368;6.730;2023-02-08T03:08:05;-0.60;99.90
15615;DHT22;7907;51.368;6.730;2023-02-08T03:10:49;-0.70;99.90
15615;DHT22;7907;51.368;6.730;2023-02-08T03:13:25;-0.60;99.90
15615;DHT22;7907;51.368;6.730;2023-02-08T03:16:01;-0.60;99.90
15615;DHT22;7907;51.368;6.730;2023-02-08T03:18:36;-0.60;99.90
15615;DHT22;7907;51.368;6.730;2023-02-08T03:21:18;-0.60;99.90
15615;DHT22;7907;51.368;6.730;2023-02-08T03:23:53;-0.60;99.90
15615;DHT22;7907;51.368;6.730;2023-02-08T03:26:30;-0.60;99.90
15615;DHT22;7907;51.368;6.730;2023-02-08T03:29:04;-0.60;99.90
15615;DHT22;7907;51.368;6.730;2023-02-08T03:31:40;-0.60;99.90
15615;DHT22;7907;51.368;6.730;2023-02-08T03:34:13;-0.60;99.90
15615;DHT22;7907;51.368;6.730;2023-02-08T03:36:49;-0.60;99.90
15615;DHT22;7907;51.368;6.730;2023-02-08T03:39:20;-0.60;99.90
15615;DHT22;7907;51.368;6.730;2023-02-08T03:41:51;-0.60;99.90
15615;DHT22;7907;51.368;6.730;2023-02-08T03:44:24;-0.60;99.90
15615;DHT22;7907;51.368;6.730;2023-02-08T03:46:58;-0.60;99.90
15615;DHT22;7907;51.368;6.730;2023-02-08T03:49:30;-0.60;99.90
15615;DHT22;7907;51.368;6.730;2023-02-08T03:52:05;-0.60;99.90
15615;DHT22;7907;51.368;6.730;2023-02-08T03:54:36;-0.60;99.90
15615;DHT22;7907;51.368;6.730;2023-02-08T03:57:08;-0.60;99.90
15615;DHT22;7907;51.368;6.730;2023-02-08T03:59:39;-0.60;99.90
15615;DHT22;7907;51.368;6.730;2023-02-08T04:02:12;-0.60;99.90
15615;DHT22;7907;51.368;6.730;2023-02-08T04:04:44;-0.60;99.90
15615;DHT22;7907;51.368;6.730;2023-02-08T04:07:15;-0.70;99.90
15615;DHT22;7907;51.368;6.730;2023-02-08T04:09:43;-0.70;99.90
15615;DHT22;7907;51.368;6.730;2023-02-08T04:12:11;-0.60;99.90
15615;DHT22;7907;51.368;6.730;2023-02-08T04:14:38;-0.70;99.90
15615;DHT22;7907;51.368;6.730;2023-02-08T04:17:06;-0.70;99.90
15615;DHT22;7907;51.368;6.730;2023-02-08T04:19:37;-0.70;99.90
15615;DHT22;7907;51.368;6.730;2023-02-08T04:22:04;-0.70;99.90
15615;DHT22;7907;51.368;6.730;2023-02-08T04:24:33;-0.80;99.90
15615;DHT22;7907;51.368;6.730;2023-02-08T04:27:02;-0.80;99.90
15615;DHT22;7907;51.368;6.730;2023-02-08T04:29:30;-0.80;99.90
15615;DHT22;7907;51.368;6.730;2023-02-08T04:31:57;-0.90;99.90
15615;DHT22;7907;51.368;6.730;2023-02-08T04:34:30;-0.90;99.90
15615;DHT22;7907;51.368;6.730;2023-02-08T04:36:58;-0.90;99.90
15615;DHT22;7907;51.368;6.730;2023-02-08T04:39:25;-0.90;99.90
15615;DHT22;7907;51.368;6.730;2023-02-08T04:41:57;-0.90;99.90
15615;DHT22;7907;51.368;6.730;2023-02-08T04:44:25;-1.00;99.90
15615;DHT22;7907;51.368;6.730;2023-02-08T04:46:55;-0.90;99.90
15615;DHT22;7907;51.368;6.730;2023-02-08T04:49:23;-0.90;99.90
15615;DHT22;7907;51.368;6.730;2023-02-08T04:51:51;-1.00;99.90
15615;DHT22;7907;51.368;6.730;2023-02-08T04:54:19;-1.00;99.90
15615;DHT22;7907;51.368;6.730;2023-02-08T04:56:47;-1.00;99.90
15615;DHT22;7907;51.368;6.730;2023-02-08T04:59:18;-1.00;99.90
15615;DHT22;7907;51.368;6.730;2023-02-08T05:01:48;-1.00;99.90
15615;DHT22;7907;51.368;6.730;2023-02-08T05:04:15;-1.00;99.90
15615;DHT22;7907;51.368;6.730;2023-02-08T05:06:44;-1.00;99.90
15615;DHT22;7907;51.368;6.730;2023-02-08T05:09:15;-1.00;99.90
15615;DHT22;7907;51.368;6.730;2023-02-08T05:11:44;-1.10;99.90
15615;DHT22;7907;51.368;6.730;2023-02-08T05:14:12;-1.10;99.90
15615;DHT22;7907;51.368;6.730;2023-02-08T05:16:42;-1.10;99.90
15615;DHT22;7907;51.368;6.730;2023-02-08T05:19:10;-1.10;99.90
15615;DHT22;7907;51.368;6.730;2023-02-08T05:21:38;-1.00;99.90
15615;DHT22;7907;51.368;6.730;2023-02-08T05:24:06;-1.10;99.90
15615;DHT22;7907;51.368;6.730;2023-02-08T05:26:37;-1.10;99.90
15615;DHT22;7907;51.368;6.730;2023-02-08T05:29:05;-1.10;99.90
15615;DHT22;7907;51.368;6.730;2023-02-08T05:31:33;-1.20;99.90
15615;DHT22;7907;51.368;6.730;2023-02-08T05:34:03;-1.20;99.90
15615;DHT22;7907;51.368;6.730;2023-02-08T05:36:32;-1.20;99.90
15615;DHT22;7907;51.368;6.730;2023-02-08T05:39:00;-1.30;99.90
15615;DHT22;7907;51.368;6.730;2023-02-08T05:41:27;-1.20;99.90
15615;DHT22;7907;51.368;6.730;2023-02-08T05:43:55;-1.20;99.90
15615;DHT22;7907;51.368;6.730;2023-02-08T05:46:22;-1.30;99.90
15615;DHT22;7907;51.368;6.730;2023-02-08T05:48:50;-1.30;99.90
15615;DHT22;7907;51.368;6.730;2023-02-08T05:51:19;-1.30;99.90
15615;DHT22;7907;51.368;6.730;2023-02-08T05:53:47;-1.30;99.90
15615;DHT22;7907;51.368;6.730;2023-02-08T05:56:14;-1.30;99.90
15615;DHT22;7907;51.368;6.730;2023-02-08T05:58:42;-1.30;99.90
15615;DHT22;7907;51.368;6.730;2023-02-08T06:01:11;-1.30;99.90
15615;DHT22;7907;51.368;6.730;2023-02-08T06:03:42;-1.30;99.90
15615;DHT22;7907;51.368;6.730;2023-02-08T06:06:09;-1.40;99.90
15615;DHT22;7907;51.368;6.730;2023-02-08T06:08:38;-1.40;99.90
15615;DHT22;7907;51.368;6.730;2023-02-08T06:11:07;-1.40;99.90
15615;DHT22;7907;51.368;6.730;2023-02-08T06:13:36;-1.40;99.90
15615;DHT22;7907;51.368;6.730;2023-02-08T06:16:05;-1.40;99.90
15615;DHT22;7907;51.368;6.730;2023-02-08T06:18:35;-1.40;99.90
15615;DHT22;7907;51.368;6.730;2023-02-08T06:21:02;-1.50;99.90
15615;DHT22;7907;51.368;6.730;2023-02-08T06:23:30;-1.50;99.90
15615;DHT22;7907;51.368;6.730;2023-02-08T06:26:00;-1.50;99.90
15615;DHT22;7907;51.368;6.730;2023-02-08T06:28:30;-1.50;99.90
15615;DHT22;7907;51.368;6.730;2023-02-08T06:30:59;-1.50;99.90
15615;DHT22;7907;51.368;6.730;2023-02-08T06:33:26;-1.50;99.90
15615;DHT22;7907;51.368;6.730;2023-02-08T06:35:54;-1.50;99.90
15615;DHT22;7907;51.368;6.730;2023-02-08T06:38:21;-1.50;99.90
15615;DHT22;7907;51.368;6.730;2023-02-08T06:40:49;-1.60;99.90
15615;DHT22;7907;51.368;6.730;2023-02-08T06:43:18;-1.60;99.90
15615;DHT22;7907;51.368;6.730;2023-02-08T06:45:46;-1.60;99.90
15615;DHT22;7907;51.368;6.730;2023-02-08T06:48:18;-1.60;99.90
15615;DHT22;7907;51.368;6.730;2023-02-08T06:50:51;-1.60;99.90
15615;DHT22;7907;51.368;6.730;2023-02-08T06:53:20;-1.60;99.90
15615;DHT22;7907;51.368;6.730;2023-02-08T06:55:50;-1.60;99.90
15615;DHT22;7907;51.368;6.730;2023-02-08T06:58:20;-1.60;99.90
15615;DHT22;7907;51.368;6.730;2023-02-08T07:00:48;-1.60;99.90
15615;DHT22;7907;51.368;6.730;2023-02-08T07:03:16;-1.60;99.90
15615;DHT22;7907;51.368;6.730;2023-02-08T07:05:44;-1.60;99.90
15615;DHT22;7907;51.368;6.730;2023-02-08T07:08:15;-1.70;99.90
15615;DHT22;7907;51.368;6.730;2023-02-08T07:10:43;-1.60;99.90
15615;DHT22;7907;51.368;6.730;2023-02-08T07:13:13;-1.60;99.90
15615;DHT22;7907;51.368;6.730;2023-02-08T07:15:46;-1.70;99.90
15615;DHT22;7907;51.368;6.730;2023-02-08T07:18:14;-1.60;99.90
15615;DHT22;7907;51.368;6.730;2023-02-08T07:20:42;-1.60;99.90
15615;DHT22;7907;51.368;6.730;2023-02-08T07:23:11;-1.60;99.90
15615;DHT22;7907;51.368;6.730;2023-02-08T07:25:38;-1.60;99.90
15615;DHT22;7907;51.368;6.730;2023-02-08T07:28:08;-1.60;99.90
15615;DHT22;7907;51.368;6.730;2023-02-08T07:30:36;-1.60;99.90
15615;DHT22;7907;51.368;6.730;2023-02-08T07:33:06;-1.60;99.90
15615;DHT22;7907;51.368;6.730;2023-02-08T07:35:35;-1.50;99.90
15615;DHT22;7907;51.368;6.730;2023-02-08T07:38:03;-1.50;99.90
15615;DHT22;7907;51.368;6.730;2023-02-08T07:40:30;-1.40;99.90
15615;DHT22;7907;51.368;6.730;2023-02-08T07:42:58;-1.40;99.90
15615;DHT22;7907;51.368;6.730;2023-02-08T07:45:25;-1.40;99.90
15615;DHT22;7907;51.368;6.730;2023-02-08T07:47:53;-1.40;99.90
15615;DHT22;7907;51.368;6.730;2023-02-08T07:50:26;-1.30;99.90
15615;DHT22;7907;51.368;6.730;2023-02-08T07:52:54;-1.30;99.90
15615;DHT22;7907;51.368;6.730;2023-02-08T07:55:23;-1.20;99.90
15615;DHT22;7907;51.368;6.730;2023-02-08T07:57:55;-1.20;99.90
15615;DHT22;7907;51.368;6.730;2023-02-08T08:00:25;-1.10;99.90
15615;DHT22;7907;51.368;6.730;2023-02-08T08:02:53;-1.00;99.90
15615;DHT22;7907;51.368;6.730;2023-02-08T08:05:22;-1.00;99.90
15615;DHT22;7907;51.368;6.730;2023-02-08T08:07:51;-0.90;99.90
15615;DHT22;7907;51.368;6.730;2023-02-08T08:10:22;-0.90;99.90
15615;DHT22;7907;51.368;6.730;2023-02-08T08:12:49;-0.80;99.90
15615;DHT22;7907;51.368;6.730;2023-02-08T08:15:19;-0.80;99.90
15615;DHT22;7907;51.368;6.730;2023-02-08T08:17:47;-0.70;99.90
15615;DHT22;7907;51.368;6.730;2023-02-08T08:20:15;-0.60;99.90
15615;DHT22;7907;51.368;6.730;2023-02-08T08:22:47;-0.50;99.90
15615;DHT22;7907;51.368;6.730;2023-02-08T08:25:14;-0.40;99.90
15615;DHT22;7907;51.368;6.730;2023-02-08T08:27:42;-0.40;99.90
15615;DHT22;7907;51.368;6.730;2023-02-08T08:30:12;-0.30;99.90
15615;DHT22;7907;51.368;6.730;2023-02-08T08:32:39;-0.20;99.90
15615;DHT22;7907;51.368;6.730;2023-02-08T08:35:10;-0.20;99.90
15615;DHT22;7907;51.368;6.730;2023-02-08T08:37:37;-0.10;99.90
15615;DHT22;7907;51.368;6.730;2023-02-08T08:40:08;0.00;99.90
15615;DHT22;7907;51.368;6.730;2023-02-08T08:42:35;0.10;99.90
15615;DHT22;7907;51.368;6.730;2023-02-08T08:45:05;0.10;99.90
15615;DHT22;7907;51.368;6.730;2023-02-08T08:47:33;0.20;99.90
15615;DHT22;7907;51.368;6.730;2023-02-08T08:50:00;0.30;99.90
15615;DHT22;7907;51.368;6.730;2023-02-08T08:52:27;0.40;99.90
15615;DHT22;7907;51.368;6.730;2023-02-08T08:54:55;0.50;99.90
15615;DHT22;7907;51.368;6.730;2023-02-08T08:57:28;0.70;99.90
15615;DHT22;7907;51.368;6.730;2023-02-08T08:59:58;0.70;99.90
15615;DHT22;7907;51.368;6.730;2023-02-08T09:02:26;0.80;99.90
15615;DHT22;7907;51.368;6.730;2023-02-08T09:04:53;0.90;99.90
15615;DHT22;7907;51.368;6.730;2023-02-08T09:07:23;1.00;99.90
15615;DHT22;7907;51.368;6.730;2023-02-08T09:09:50;1.10;99.90
15615;DHT22;7907;51.368;6.730;2023-02-08T09:12:17;1.20;99.90
15615;DHT22;7907;51.368;6.730;2023-02-08T09:14:48;1.40;99.90
15615;DHT22;7907;51.368;6.730;2023-02-08T09:17:15;1.40;99.90
15615;DHT22;7907;51.368;6.730;2023-02-08T09:19:46;1.50;99.90
15615;DHT22;7907;51.368;6.730;2023-02-08T09:22:13;1.70;99.90
15615;DHT22;7907;51.368;6.730;2023-02-08T09:24:43;1.80;99.90
15615;DHT22;7907;51.368;6.730;2023-02-08T09:27:10;1.90;99.90
15615;DHT22;7907;51.368;6.730;2023-02-08T09:29:39;2.00;99.90
15615;DHT22;7907;51.368;6.730;2023-02-08T09:32:08;2.20;99.90
15615;DHT22;7907;51.368;6.730;2023-02-08T09:34:35;2.30;99.90
15615;DHT22;7907;51.368;6.730;2023-02-08T09:37:03;2.40;98.70
15615;DHT22;7907;51.368;6.730;2023-02-08T09:39:31;2.50;98.40
15615;DHT22;7907;51.368;6.730;2023-02-08T09:42:37;2.60;97.00
15615;DHT22;7907;51.368;6.730;2023-02-08T09:45:23;2.80;98.50
15615;DHT22;7907;51.368;6.730;2023-02-08T09:48:04;2.90;96.20
15615;DHT22;7907;51.368;6.730;2023-02-08T09:50:43;3.10;94.90
15615;DHT22;7907;51.368;6.730;2023-02-08T09:53:15;3.20;95.20
15615;DHT22;7907;51.368;6.730;2023-02-08T09:55:48;3.30;94.00
15615;DHT22;7907;51.368;6.730;2023-02-08T09:58:21;3.40;93.40
15615;DHT22;7907;51.368;6.730;2023-02-08T10:00:50;3.50;93.10
15615;DHT22;7907;51.368;6.730;2023-02-08T10:03:42;3.60;90.60
15615;DHT22;7907;51.368;6.730;2023-02-08T10:06:13;3.70;89.90
15615;DHT22;7907;51.368;6.730;2023-02-08T10:08:41;3.80;87.40
15615;DHT22;7907;51.368;6.730;2023-02-08T10:14:12;4.00;80.90
15615;DHT22;7907;51.368;6.730;2023-02-08T10:16:53;4.10;81.30
15615;DHT22;7907;51.368;6.730;2023-02-08T10:19:36;4.20;79.20
15615;DHT22;7907;51.368;6.730;2023-02-08T10:22:20;4.30;77.70
15615;DHT22;7907;51.368;6.730;2023-02-08T10:25:02;4.40;76.20
15615;DHT22;7907;51.368;6.730;2023-02-08T10:27:41;4.50;75.10
15615;DHT22;7907;51.368;6.730;2023-02-08T10:30:23;4.60;73.90
15615;DHT22;7907;51.368;6.730;2023-02-08T10:33:00;4.80;70.70
15615;DHT22;7907;51.368;6.730;2023-02-08T10:35:32;4.80;67.00
15615;DHT22;7907;51.368;6.730;2023-02-08T10:38:21;4.90;67.80
15615;DHT22;7907;51.368;6.730;2023-02-08T10:40:54;5.00;65.20
15615;DHT22;7907;51.368;6.730;2023-02-08T10:43:36;5.10;63.70
15615;DHT22;7907;51.368;6.730;2023-02-08T10:46:10;5.20;63.80
15615;DHT22;7907;51.368;6.730;2023-02-08T10:48:52;5.30;62.00
15615;DHT22;7907;51.368;6.730;2023-02-08T10:51:25;5.40;61.60
15615;DHT22;7907;51.368;6.730;2023-02-08T10:53:57;5.50;60.80
15615;DHT22;7907;51.368;6.730;2023-02-08T10:56:42;5.60;59.20
15615;DHT22;7907;51.368;6.730;2023-02-08T10:59:19;5.70;59.20
15615;DHT22;7907;51.368;6.730;2023-02-08T11:01:48;5.70;57.90
15615;DHT22;7907;51.368;6.730;2023-02-08T11:04:20;5.90;56.50
15615;DHT22;7907;51.368;6.730;2023-02-08T11:06:50;5.90;55.70
15615;DHT22;7907;51.368;6.730;2023-02-08T11:09:24;6.00;55.00
15615;DHT22;7907;51.368;6.730;2023-02-08T11:11:54;6.10;53.90
15615;DHT22;7907;51.368;6.730;2023-02-08T11:14:28;6.20;53.90
15615;DHT22;7907;51.368;6.730;2023-02-08T11:17:01;6.20;51.30
15615;DHT22;7907;51.368;6.730;2023-02-08T11:19:32;6.30;51.60
15615;DHT22;7907;51.368;6.730;2023-02-08T11:22:05;6.40;50.90
15615;DHT22;7907;51.368;6.730;2023-02-08T11:24:36;6.50;49.60
15615;DHT22;7907;51.368;6.730;2023-02-08T11:27:28;6.60;48.00
15615;DHT22;7907;51.368;6.730;2023-02-08T11:30:18;6.70;46.60
15615;DHT22;7907;51.368;6.730;2023-02-08T11:32:47;6.80;47.40
15615;DHT22;7907;51.368;6.730;2023-02-08T11:35:20;6.90;47.40
15615;DHT22;7907;51.368;6.730;2023-02-08T11:37:54;7.10;44.60
15615;DHT22;7907;51.368;6.730;2023-02-08T11:40:31;7.20;43.30
15615;DHT22;7907;51.368;6.730;2023-02-08T11:43:15;7.30;43.00
15615;DHT22;7907;51.368;6.730;2023-02-08T11:45:50;7.50;41.10
15615;DHT22;7907;51.368;6.730;2023-02-08T11:48:23;7.70;40.10
15615;DHT22;7907;51.368;6.730;2023-02-08T11:50:58;7.80;39.40
15615;DHT22;7907;51.368;6.730;2023-02-08T11:53:35;7.90;37.50
15615;DHT22;7907;51.368;6.730;2023-02-08T11:56:21;8.10;38.10
15615;DHT22;7907;51.368;6.730;2023-02-08T11:59:00;8.20;36.90
15615;DHT22;7907;51.368;6.730;2023-02-08T12:01:46;8.40;36.60
15615;DHT22;7907;51.368;6.730;2023-02-08T12:04:16;8.50;36.30
15615;DHT22;7907;51.368;6.730;2023-02-08T12:10:04;8.90;36.40
15615;DHT22;7907;51.368;6.730;2023-02-08T12:12:47;9.00;34.80
15615;DHT22;7907;51.368;6.730;2023-02-08T12:15:36;9.20;34.20
15615;DHT22;7907;51.368;6.730;2023-02-08T12:18:23;9.40;33.50
15615;DHT22;7907;51.368;6.730;2023-02-08T12:21:03;9.60;35.60
15615;DHT22;7907;51.368;6.730;2023-02-08T12:24:02;9.70;36.00
15615;DHT22;7907;51.368;6.730;2023-02-08T12:26:51;9.90;35.30
15615;DHT22;7907;51.368;6.730;2023-02-08T12:29:40;10.10;34.20
15615;DHT22;7907;51.368;6.730;2023-02-08T12:32:43;10.30;33.70
15615;DHT22;7907;51.368;6.730;2023-02-08T12:35:47;10.40;34.00
15615;DHT22;7907;51.368;6.730;2023-02-08T12:38:31;10.70;34.50
15615;DHT22;7907;51.368;6.730;2023-02-08T12:41:30;10.90;34.10
15615;DHT22;7907;51.368;6.730;2023-02-08T12:44:13;11.10;34.00
15615;DHT22;7907;51.368;6.730;2023-02-08T12:46:56;11.20;33.60
15615;DHT22;7907;51.368;6.730;2023-02-08T12:49:56;11.50;33.70
15615;DHT22;7907;51.368;6.730;2023-02-08T12:53:14;11.70;34.20
15615;DHT22;7907;51.368;6.730;2023-02-08T12:58:39;12.20;33.00
15615;DHT22;7907;51.368;6.730;2023-02-08T13:01:33;12.40;31.60
15615;DHT22;7907;51.368;6.730;2023-02-08T13:04:18;12.50;32.00
15615;DHT22;7907;51.368;6.730;2023-02-08T13:06:52;12.60;32.00
15615;DHT22;7907;51.368;6.730;2023-02-08T13:09:39;12.80;31.80
15615;DHT22;7907;51.368;6.730;2023-02-08T13:12:18;12.90;31.20
15615;DHT22;7907;51.368;6.730;2023-02-08T13:15:03;13.10;31.70
15615;DHT22;7907;51.368;6.730;2023-02-08T13:18:04;13.30;31.90
15615;DHT22;7907;51.368;6.730;2023-02-08T13:20:46;13.50;31.10
15615;DHT22;7907;51.368;6.730;2023-02-08T13:23:25;13.70;31.50
15615;DHT22;7907;51.368;6.730;2023-02-08T13:26:05;14.00;31.00
15615;DHT22;7907;51.368;6.730;2023-02-08T13:28:34;14.20;30.60
15615;DHT22;7907;51.368;6.730;2023-02-08T13:31:07;14.30;29.90
15615;DHT22;7907;51.368;6.730;2023-02-08T13:33:55;14.50;29.90
15615;DHT22;7907;51.368;6.730;2023-02-08T13:36:41;14.60;29.50
15615;DHT22;7907;51.368;6.730;2023-02-08T13:39:31;14.40;30.30
15615;DHT22;7907;51.368;6.730;2023-02-08T13:42:05;14.40;30.00
15615;DHT22;7907;51.368;6.730;2023-02-08T13:44:37;14.70;30.00
15615;DHT22;7907;51.368;6.730;2023-02-08T13:47:21;15.00;30.00
15615;DHT22;7907;51.368;6.730;2023-02-08T13:50:04;15.20;29.10
15615;DHT22;7907;51.368;6.730;2023-02-08T13:52:51;15.40;28.50
15615;DHT22;7907;51.368;6.730;2023-02-08T13:55:42;15.70;29.30
15615;DHT22;7907;51.368;6.730;2023-02-08T14:01:36;16.30;29.00
15615;DHT22;7907;51.368;6.730;2023-02-08T14:04:32;16.60;27.40
15615;DHT22;7907;51.368;6.730;2023-02-08T14:07:18;16.80;27.70
15615;DHT22;7907;51.368;6.730;2023-02-08T14:10:17;17.00;27.10
15615;DHT22;7907;51.368;6.730;2023-02-08T14:12:52;17.20;27.20
15615;DHT22;7907;51.368;6.730;2023-02-08T14:15:36;17.40;27.60
15615;DHT22;7907;51.368;6.730;2023-02-08T14:18:26;17.60;26.80
15615;DHT22;7907;51.368;6.730;2023-02-08T14:21:06;17.80;26.50
15615;DHT22;7907;51.368;6.730;2023-02-08T14:23:38;18.00;25.80
15615;DHT22;7907;51.368;6.730;2023-02-08T14:26:18;18.20;25.80
15615;DHT22;7907;51.368;6.730;2023-02-08T14:28:54;18.40;26.10
15615;DHT22;7907;51.368;6.730;2023-02-08T14:31:35;18.50;25.80
15615;DHT22;7907;51.368;6.730;2023-02-08T14:34:05;18.60;24.90
15615;DHT22;7907;51.368;6.730;2023-02-08T14:36:35;18.60;25.70
15615;DHT22;7907;51.368;6.730;2023-02-08T14:41:55;18.90;24.50
15615;DHT22;7907;51.368;6.730;2023-02-08T14:45:03;19.20;24.40
15615;DHT22;7907;51.368;6.730;2023-02-08T14:48:06;19.30;23.50
15615;DHT22;7907;51.368;6.730;2023-02-08T14:50:53;19.40;23.00
15615;DHT22;7907;51.368;6.730;2023-02-08T14:53:39;19.50;23.00
15615;DHT22;7907;51.368;6.730;2023-02-08T14:56:17;19.70;22.70
15615;DHT22;7907;51.368;6.730;2023-02-08T14:58:48;19.70;22.10
15615;DHT22;7907;51.368;6.730;2023-02-08T15:01:19;19.80;22.60
15615;DHT22;7907;51.368;6.730;2023-02-08T15:03:49;19.90;22.50
15615;DHT22;7907;51.368;6.730;2023-02-08T15:06:48;19.90;22.30
15615;DHT22;7907;51.368;6.730;2023-02-08T15:09:27;20.00;22.10
15615;DHT22;7907;51.368;6.730;2023-02-08T15:12:03;20.00;22.10
15615;DHT22;7907;51.368;6.730;2023-02-08T15:14:34;20.10;22.20
15615;DHT22;7907;51.368;6.730;2023-02-08T15:17:02;20.20;22.60
15615;DHT22;7907;51.368;6.730;2023-02-08T15:19:35;20.10;21.90
15615;DHT22;7907;51.368;6.730;2023-02-08T15:22:30;20.20;22.40
15615;DHT22;7907;51.368;6.730;2023-02-08T15:25:23;20.20;22.30
15615;DHT22;7907;51.368;6.730;2023-02-08T15:27:55;20.20;22.20
15615;DHT22;7907;51.368;6.730;2023-02-08T15:30:34;20.10;22.10
15615;DHT22;7907;51.368;6.730;2023-02-08T15:33:12;20.20;22.50
15615;DHT22;7907;51.368;6.730;2023-02-08T15:35:59;20.10;22.00
15615;DHT22;7907;51.368;6.730;2023-02-08T15:38:29;20.10;22.50
15615;DHT22;7907;51.368;6.730;2023-02-08T15:41:05;19.90;22.40
15615;DHT22;7907;51.368;6.730;2023-02-08T15:43:39;19.90;22.60
15615;DHT22;7907;51.368;6.730;2023-02-08T15:46:19;19.90;22.60
15615;DHT22;7907;51.368;6.730;2023-02-08T15:48:50;19.80;22.50
15615;DHT22;7907;51.368;6.730;2023-02-08T15:51:18;19.60;22.40
15615;DHT22;7907;51.368;6.730;2023-02-08T15:53:49;19.40;22.40
15615;DHT22;7907;51.368;6.730;2023-02-08T15:56:24;19.00;23.30
15615;DHT22;7907;51.368;6.730;2023-02-08T15:58:58;18.60;23.00
15615;DHT22;7907;51.368;6.730;2023-02-08T16:01:30;18.20;23.10
15615;DHT22;7907;51.368;6.730;2023-02-08T16:03:59;17.80;23.00
15615;DHT22;7907;51.368;6.730;2023-02-08T16:06:36;17.40;23.90
15615;DHT22;7907;51.368;6.730;2023-02-08T16:09:18;17.00;23.60
15615;DHT22;7907;51.368;6.730;2023-02-08T16:14:59;16.00;24.40
15615;DHT22;7907;51.368;6.730;2023-02-08T16:17:45;15.60;24.80
15615;DHT22;7907;51.368;6.730;2023-02-08T16:20:23;15.00;25.20
15615;DHT22;7907;51.368;6.730;2023-02-08T16:22:55;14.60;25.60
15615;DHT22;7907;51.368;6.730;2023-02-08T16:25:33;14.20;26.30
15615;DHT22;7907;51.368;6.730;2023-02-08T16:28:03;13.70;27.10
15615;DHT22;7907;51.368;6.730;2023-02-08T16:30:33;13.30;26.80
15615;DHT22;7907;51.368;6.730;2023-02-08T16:33:08;13.00;26.70
15615;DHT22;7907;51.368;6.730;2023-02-08T16:35:39;12.60;26.60
15615;DHT22;7907;51.368;6.730;2023-02-08T16:38:08;12.30;26.80
15615;DHT22;7907;51.368;6.730;2023-02-08T16:40:42;12.00;27.20
15615;DHT22;7907;51.368;6.730;2023-02-08T16:43:33;11.70;27.30
15615;DHT22;7907;51.368;6.730;2023-02-08T16:46:26;11.40;27.50
15615;DHT22;7907;51.368;6.730;2023-02-08T16:48:55;11.10;28.70
15615;DHT22;7907;51.368;6.730;2023-02-08T16:51:26;10.90;28.90
15615;DHT22;7907;51.368;6.730;2023-02-08T16:53:57;10.60;29.10
15615;DHT22;7907;51.368;6.730;2023-02-08T16:56:33;10.40;29.40